createdAt,value
2019-05-22T00:00:19.470Z,99.993896
2019-05-22T00:01:29.014Z,99.993896
2019-05-22T00:02:38.531Z,99.993896
2019-05-22T00:03:48.044Z,99.993896
2019-05-22T00:04:57.569Z,99.993896
2019-05-22T00:06:07.145Z,99.993896
2019-05-22T00:07:16.661Z,99.993896
2019-05-22T00:08:26.182Z,99.993896
2019-05-22T00:09:35.684Z,99.993896
2019-05-22T00:10:45.192Z,99.993896
2019-05-22T00:11:54.739Z,99.993896
2019-05-22T00:13:04.251Z,99.993896
2019-05-22T00:14:13.755Z,99.993896
2019-05-22T00:15:23.278Z,99.993896
2019-05-22T00:16:32.823Z,99.993896
2019-05-22T00:17:42.339Z,99.993896
2019-05-22T00:18:51.842Z,99.993896
2019-05-22T00:20:01.359Z,99.993896
2019-05-22T00:21:10.957Z,99.993896
2019-05-22T00:22:20.449Z,99.993896
2019-05-22T00:23:29.965Z,99.993896
2019-05-22T00:24:39.476Z,99.993896
2019-05-22T00:25:48.995Z,99.993896
2019-05-22T00:26:58.530Z,99.993896
2019-05-22T00:28:08.059Z,99.993896
2019-05-22T00:29:17.570Z,99.993896
2019-05-22T00:30:27.081Z,99.993896
2019-05-22T00:31:36.623Z,99.993896
2019-05-22T00:32:46.148Z,99.993896
2019-05-22T00:33:55.652Z,99.993896
2019-05-22T00:35:05.151Z,99.993896
2019-05-22T00:36:14.670Z,99.993896
2019-05-22T00:37:24.213Z,99.993896
2019-05-22T00:38:33.722Z,99.993896
2019-05-22T00:39:43.242Z,99.993896
2019-05-22T00:40:52.776Z,99.993896
2019-05-22T00:42:02.323Z,99.993896
2019-05-22T00:43:14.129Z,99.993896
2019-05-22T00:44:21.320Z,99.993896
2019-05-22T00:45:30.839Z,99.993896
2019-05-22T00:46:40.345Z,99.993896
2019-05-22T00:47:49.894Z,99.993896
2019-05-22T00:48:59.399Z,99.993896
2019-05-22T00:50:08.916Z,99.993896
2019-05-22T00:51:18.438Z,99.993896
2019-05-22T00:52:27.989Z,99.993896
2019-05-22T00:53:37.500Z,99.993896
2019-05-22T00:54:47.012Z,99.993896
2019-05-22T00:55:56.523Z,99.993896
2019-05-22T00:57:06.085Z,99.993896
2019-05-22T00:58:15.599Z,99.993896
2019-05-22T00:59:25.115Z,99.993896
2019-05-22T01:00:34.988Z,99.993896
2019-05-22T01:01:44.129Z,99.993896
2019-05-22T01:02:53.667Z,99.993896
2019-05-22T01:04:03.188Z,99.993896
2019-05-22T01:05:12.698Z,99.993896
2019-05-22T01:06:22.204Z,99.993896
2019-05-22T01:07:31.786Z,99.993896
2019-05-22T01:08:41.295Z,99.993896
2019-05-22T01:09:50.891Z,99.993896
2019-05-22T01:11:00.363Z,99.993896
2019-05-22T01:12:09.868Z,99.993896
2019-05-22T01:13:19.388Z,99.993896
2019-05-22T01:14:41.855Z,99.993896
2019-05-22T01:15:39.406Z,99.993896
2019-05-22T01:16:48.895Z,99.993896
2019-05-22T01:17:58.440Z,99.993896
2019-05-22T01:19:07.946Z,99.993896
2019-05-22T01:20:17.457Z,99.993896
2019-05-22T01:21:26.970Z,99.993896
2019-05-22T01:22:36.479Z,99.993896
2019-05-22T01:23:46.024Z,99.993896
2019-05-22T01:24:55.529Z,99.993896
2019-05-22T01:26:05.059Z,99.993896
2019-05-22T01:27:14.581Z,99.993896
2019-05-22T01:28:24.143Z,99.993896
2019-05-22T01:29:33.659Z,99.993896
2019-05-22T01:30:43.170Z,99.993896
2019-05-22T01:31:52.682Z,99.993896
2019-05-22T01:33:02.212Z,99.993896
2019-05-22T01:34:11.736Z,99.993896
2019-05-22T01:35:21.246Z,99.993896
2019-05-22T01:36:30.755Z,99.993896
2019-05-22T01:37:40.268Z,99.993896
2019-05-22T01:38:49.818Z,99.993896
2019-05-22T01:39:59.332Z,99.993896
2019-05-22T01:41:08.857Z,99.993896
2019-05-22T01:42:18.382Z,99.993896
2019-05-22T01:43:27.890Z,99.993896
2019-05-22T01:44:37.462Z,99.993896
2019-05-22T01:45:46.980Z,99.993896
2019-05-22T01:46:56.492Z,99.993896
2019-05-22T01:48:06.005Z,99.993896
2019-05-22T01:49:15.550Z,99.993896
2019-05-22T01:50:25.054Z,99.993896
2019-05-22T01:51:34.553Z,99.993896
2019-05-22T01:52:44.054Z,99.993896
2019-05-22T01:53:53.729Z,99.993896
2019-05-22T01:55:03.144Z,99.993896
2019-05-22T01:56:12.873Z,99.993896
2019-05-22T01:57:22.183Z,99.993896
2019-05-22T01:58:31.707Z,99.993896
2019-05-22T01:59:41.252Z,99.993896
2019-05-22T02:00:50.773Z,99.993896
2019-05-22T02:02:00.285Z,99.993896
2019-05-22T02:03:10.802Z,99.993896
2019-05-22T02:04:20.368Z,99.993896
2019-05-22T02:05:29.884Z,99.993896
2019-05-22T02:06:39.396Z,99.993896
2019-05-22T02:07:48.932Z,99.993896
2019-05-22T02:08:58.424Z,99.993896
2019-05-22T02:10:07.991Z,99.993896
2019-05-22T02:11:17.506Z,99.993896
2019-05-22T02:12:27.027Z,99.993896
2019-05-22T02:13:36.531Z,99.993896
2019-05-22T02:14:46.078Z,99.993896
2019-05-22T02:15:55.613Z,99.993896
2019-05-22T02:17:05.123Z,99.993896
2019-05-22T02:18:14.631Z,99.993896
2019-05-22T02:19:24.142Z,99.993896
2019-05-22T02:20:33.751Z,99.993896
2019-05-22T02:21:43.283Z,99.993896
2019-05-22T02:22:52.796Z,99.993896
2019-05-22T02:24:02.320Z,99.993896
2019-05-22T02:25:12.387Z,99.993896
2019-05-22T02:26:21.370Z,99.993896
2019-05-22T02:27:30.883Z,99.993896
2019-05-22T02:28:40.416Z,99.993896
2019-05-22T02:29:49.939Z,99.993896
2019-05-22T02:30:59.532Z,99.993896
2019-05-22T02:32:09.052Z,99.993896
2019-05-22T02:33:18.569Z,99.993896
2019-05-22T02:34:28.083Z,99.993896
2019-05-22T02:35:37.627Z,99.993896
2019-05-22T02:36:47.146Z,99.993896
2019-05-22T02:37:56.682Z,99.993896
2019-05-22T02:39:06.187Z,99.993896
2019-05-22T02:40:15.720Z,99.993896
2019-05-22T02:41:25.237Z,99.993896
2019-05-22T02:42:34.770Z,99.993896
2019-05-22T02:43:44.284Z,99.993896
2019-05-22T02:44:53.792Z,99.993896
2019-05-22T02:46:03.343Z,99.993896
2019-05-22T02:47:19.472Z,99.993896
2019-05-22T02:48:23.333Z,99.993896
2019-05-22T02:49:32.891Z,99.993896
2019-05-22T02:50:42.407Z,99.993896
2019-05-22T02:51:51.913Z,99.993896
2019-05-22T02:53:01.448Z,99.993896
2019-05-22T02:54:10.954Z,99.993896
2019-05-22T02:55:20.475Z,99.993896
2019-05-22T02:56:30.066Z,99.993896
2019-05-22T02:57:39.587Z,99.993896
2019-05-22T02:58:49.090Z,99.993896
2019-05-22T02:59:58.623Z,99.993896
2019-05-22T03:01:08.161Z,99.993896
2019-05-22T03:02:17.684Z,99.993896
2019-05-22T03:03:27.212Z,99.993896
2019-05-22T03:04:36.746Z,99.993896
2019-05-22T03:05:46.403Z,99.993896
2019-05-22T03:06:55.918Z,99.993896
2019-05-22T03:08:05.433Z,99.993896
2019-05-22T03:09:14.948Z,99.993896
2019-05-22T03:10:24.479Z,99.993896
2019-05-22T03:11:35.231Z,99.993896
2019-05-22T03:12:43.524Z,99.993896
2019-05-22T03:13:53.044Z,99.993896
2019-05-22T03:15:02.713Z,99.993896
2019-05-22T03:16:12.094Z,99.993896
2019-05-22T03:17:21.597Z,99.993896
2019-05-22T03:18:31.114Z,99.993896
2019-05-22T03:19:40.624Z,99.993896
2019-05-22T03:20:50.137Z,99.993896
2019-05-22T03:21:59.660Z,99.993896
2019-05-22T03:23:09.182Z,99.993896
2019-05-22T03:24:18.697Z,99.993896
2019-05-22T03:25:28.212Z,99.993896
2019-05-22T03:26:37.756Z,99.993896
2019-05-22T03:27:47.268Z,99.993896
2019-05-22T03:28:56.776Z,99.993896
2019-05-22T03:30:06.283Z,99.993896
2019-05-22T03:31:15.978Z,99.993896
2019-05-22T03:32:25.406Z,99.993896
2019-05-22T03:33:34.901Z,99.993896
2019-05-22T03:34:44.411Z,99.993896
2019-05-22T03:35:53.921Z,99.993896
2019-05-22T03:37:03.518Z,99.993896
2019-05-22T03:38:12.994Z,99.993896
2019-05-22T03:39:22.512Z,99.993896
2019-05-22T03:40:32.054Z,99.993896
2019-05-22T03:41:41.574Z,99.993896
2019-05-22T03:42:51.131Z,99.993896
2019-05-22T03:44:00.646Z,99.993896
2019-05-22T03:45:10.156Z,99.993896
2019-05-22T03:46:19.725Z,99.993896
2019-05-22T03:47:29.259Z,99.993896
2019-05-22T03:48:38.766Z,99.993896
2019-05-22T03:49:48.278Z,99.993896
2019-05-22T03:50:57.786Z,99.993896
2019-05-22T03:52:07.319Z,99.993896
2019-05-22T03:53:16.829Z,99.993896
2019-05-22T03:54:26.337Z,99.993896
2019-05-22T03:55:35.856Z,99.993896
2019-05-22T03:56:45.434Z,99.993896
2019-05-22T03:57:54.945Z,99.993896
2019-05-22T03:59:04.462Z,99.993896
2019-05-22T04:00:13.975Z,99.993896
2019-05-22T04:01:23.519Z,99.993896
2019-05-22T04:02:33.075Z,99.993896
2019-05-22T04:03:42.575Z,99.993896
2019-05-22T04:04:52.093Z,99.993896
2019-05-22T04:06:01.610Z,99.993896
2019-05-22T04:07:11.142Z,99.993896
2019-05-22T04:08:20.649Z,99.993896
2019-05-22T04:09:30.172Z,99.993896
2019-05-22T04:10:41.104Z,99.993896
2019-05-22T04:11:49.237Z,99.993896
2019-05-22T04:12:58.776Z,99.993896
2019-05-22T04:14:08.320Z,99.993896
2019-05-22T04:15:17.927Z,99.993896
2019-05-22T04:16:27.437Z,99.993896
2019-05-22T04:17:37.045Z,99.993896
2019-05-22T04:18:46.551Z,99.993896
2019-05-22T04:19:56.056Z,99.993896
2019-05-22T04:21:05.569Z,99.993896
2019-05-22T04:22:15.132Z,99.993896
2019-05-22T04:23:24.652Z,99.993896
2019-05-22T04:24:34.159Z,99.993896
2019-05-22T04:25:43.670Z,99.993896
2019-05-22T04:26:53.179Z,99.993896
2019-05-22T04:28:02.739Z,99.993896
2019-05-22T04:29:12.253Z,99.993896
2019-05-22T04:30:21.766Z,99.993896
2019-05-22T04:31:31.309Z,99.993896
2019-05-22T04:32:40.881Z,99.993896
2019-05-22T04:33:50.387Z,99.993896
2019-05-22T04:34:59.910Z,99.993896
2019-05-22T04:36:10.233Z,99.993896
2019-05-22T04:37:18.916Z,99.993896
2019-05-22T04:38:28.439Z,99.993896
2019-05-22T04:39:37.955Z,99.993896
2019-05-22T04:40:47.475Z,99.993896
2019-05-22T04:41:56.987Z,99.993896
2019-05-22T04:43:06.534Z,99.993896
2019-05-22T04:44:16.045Z,99.993896
2019-05-22T04:45:25.574Z,99.993896
2019-05-22T04:46:36.291Z,99.993896
2019-05-22T04:47:46.666Z,99.993896
2019-05-22T04:48:56.173Z,99.993896
2019-05-22T04:50:07.762Z,99.993896
2019-05-22T04:51:15.155Z,99.993896
2019-05-22T04:52:24.669Z,99.993896
2019-05-22T04:53:34.209Z,99.993896
2019-05-22T04:54:43.726Z,99.993896
2019-05-22T04:55:53.233Z,99.993896
2019-05-22T04:57:02.749Z,99.993896
2019-05-22T04:58:12.277Z,99.993896
2019-05-22T04:59:21.798Z,99.993896
2019-05-22T05:00:31.285Z,99.993896
2019-05-22T05:01:40.803Z,99.993896
2019-05-22T05:02:50.326Z,99.993896
2019-05-22T05:03:59.887Z,99.993896
2019-05-22T05:05:09.380Z,99.993896
2019-05-22T05:06:18.896Z,99.993896
2019-05-22T05:07:28.401Z,99.993896
2019-05-22T05:08:37.921Z,99.993896
2019-05-22T05:09:47.435Z,99.993896
2019-05-22T05:10:56.951Z,99.993896
2019-05-22T05:12:06.480Z,99.993896
2019-05-22T05:13:16.165Z,99.993896
2019-05-22T05:14:25.679Z,99.993896
2019-05-22T05:15:37.202Z,99.993896
2019-05-22T05:16:44.708Z,99.993896
2019-05-22T05:17:54.223Z,99.993896
2019-05-22T05:19:03.760Z,99.993896
2019-05-22T05:20:21.887Z,99.993896
2019-05-22T05:21:23.742Z,99.993896
2019-05-22T05:22:33.266Z,99.993896
2019-05-22T05:23:42.809Z,99.993896
2019-05-22T05:24:55.463Z,99.993896
2019-05-22T05:26:01.823Z,99.993896
2019-05-22T05:27:11.331Z,99.993896
2019-05-22T05:28:20.840Z,99.993896
2019-05-22T05:29:30.363Z,99.993896
2019-05-22T05:30:39.877Z,99.993896
2019-05-22T05:31:49.398Z,99.993896
2019-05-22T05:32:58.927Z,99.993896
2019-05-22T05:34:08.466Z,99.993896
2019-05-22T05:35:18.961Z,99.993896
2019-05-22T05:36:28.475Z,99.993896
2019-05-22T05:37:37.990Z,99.993896
2019-05-22T05:38:47.503Z,99.993896
2019-05-22T05:39:57.066Z,99.993896
2019-05-22T05:41:06.589Z,99.993896
2019-05-22T05:42:16.092Z,99.993896
2019-05-22T05:43:25.613Z,99.993896
2019-05-22T05:44:35.137Z,99.993896
2019-05-22T05:45:44.649Z,99.993896
2019-05-22T05:46:54.181Z,99.993896
2019-05-22T05:48:03.709Z,99.993896
2019-05-22T05:49:13.287Z,99.993896
2019-05-22T05:50:36.464Z,99.993896
2019-05-22T05:51:33.302Z,99.993896
2019-05-22T05:52:42.826Z,99.993896
2019-05-22T05:53:52.346Z,99.993896
2019-05-22T05:55:01.890Z,99.993896
2019-05-22T05:56:11.410Z,99.993896
2019-05-22T05:57:20.933Z,99.993896
2019-05-22T05:58:30.469Z,99.993896
2019-05-22T05:59:40.014Z,99.993896
2019-05-22T06:00:49.533Z,99.993896
2019-05-22T06:01:59.056Z,99.993896
2019-05-22T06:03:08.573Z,99.993896
2019-05-22T06:04:18.087Z,99.993896
2019-05-22T06:05:28.661Z,99.993896
2019-05-22T06:06:38.188Z,99.993896
2019-05-22T06:07:47.703Z,99.993896
2019-05-22T06:08:57.216Z,99.993896
2019-05-22T06:10:06.807Z,99.993896
2019-05-22T06:11:16.319Z,99.993896
2019-05-22T06:12:25.845Z,99.993896
2019-05-22T06:13:35.351Z,99.993896
2019-05-22T06:14:44.930Z,99.993896
2019-05-22T06:15:54.471Z,99.993896
2019-05-22T06:17:03.981Z,99.993896
2019-05-22T06:18:13.501Z,99.993896
2019-05-22T06:19:23.006Z,99.993896
2019-05-22T06:20:32.570Z,99.993896
2019-05-22T06:21:42.091Z,99.993896
2019-05-22T06:22:51.604Z,99.993896
2019-05-22T06:24:02.104Z,99.993896
2019-05-22T06:25:11.661Z,99.993896
2019-05-22T06:26:21.183Z,99.993896
2019-05-22T06:27:30.694Z,99.993896
2019-05-22T06:28:40.215Z,99.993896
2019-05-22T06:29:49.750Z,99.993896
2019-05-22T06:30:59.288Z,99.993896
2019-05-22T06:32:08.801Z,99.993896
2019-05-22T06:33:18.336Z,99.993896
2019-05-22T06:34:27.882Z,99.993896
2019-05-22T06:35:37.475Z,99.993896
2019-05-22T06:36:46.983Z,99.993896
2019-05-22T06:37:56.488Z,99.993896
2019-05-22T06:39:06.001Z,99.993896
2019-05-22T06:40:15.582Z,99.993896
2019-05-22T06:41:25.093Z,99.993896
2019-05-22T06:42:34.608Z,99.993896
2019-05-22T06:43:44.111Z,99.993896
2019-05-22T06:44:53.629Z,99.993896
2019-05-22T06:46:03.202Z,99.993896
2019-05-22T06:47:12.721Z,99.993896
2019-05-22T06:48:22.238Z,99.993896
2019-05-22T06:49:31.769Z,99.993896
2019-05-22T06:50:41.323Z,99.993896
2019-05-22T06:51:51.821Z,99.993896
2019-05-22T06:53:09.627Z,99.993896
2019-05-22T06:54:11.835Z,99.993896
2019-05-22T06:55:21.358Z,99.993896
2019-05-22T06:56:30.930Z,99.993896
2019-05-22T06:57:40.436Z,99.993896
2019-05-22T06:58:49.967Z,99.993896
2019-05-22T07:00:12.763Z,99.993896
2019-05-22T07:01:10.002Z,99.993896
2019-05-22T07:02:19.512Z,99.993896
2019-05-22T07:03:29.009Z,99.993896
2019-05-22T07:04:38.530Z,99.993896
2019-05-22T07:05:48.087Z,99.572754
2019-05-22T07:06:57.665Z,99.468994
2019-05-22T07:08:07.172Z,99.572754
2019-05-22T07:09:16.677Z,99.468994
2019-05-22T07:10:26.192Z,99.468994
2019-05-22T07:11:35.737Z,99.468994
2019-05-22T07:12:45.250Z,99.371338
2019-05-22T07:13:55.751Z,99.267578
2019-05-22T07:15:05.265Z,99.060059
2019-05-22T07:16:14.811Z,99.060059
2019-05-22T07:17:24.321Z,99.163818
2019-05-22T07:18:33.829Z,98.754883
2019-05-22T07:19:43.345Z,98.858643
2019-05-22T07:20:53.287Z,98.858643
2019-05-22T07:22:02.418Z,98.858643
2019-05-22T07:23:11.935Z,98.754883
2019-05-22T07:24:21.456Z,98.962402
2019-05-22T07:25:30.973Z,99.060059
2019-05-22T07:26:40.513Z,98.754883
2019-05-22T07:27:50.029Z,98.651123
2019-05-22T07:29:01.611Z,98.754883
2019-05-22T07:30:10.049Z,98.345947
2019-05-22T07:31:19.601Z,98.199463
2019-05-22T07:32:30.961Z,97.790527
2019-05-22T07:33:38.626Z,97.583008
2019-05-22T07:34:48.163Z,97.790527
2019-05-22T07:36:09.003Z,97.894287
2019-05-22T07:37:08.227Z,98.095703
2019-05-22T07:38:17.757Z,98.095703
2019-05-22T07:39:27.279Z,97.894287
2019-05-22T07:40:36.803Z,98.095703
2019-05-22T07:41:46.338Z,97.894287
2019-05-22T07:42:56.185Z,97.790527
2019-05-22T07:44:05.409Z,97.991943
2019-05-22T07:45:14.927Z,97.991943
2019-05-22T07:46:24.485Z,98.095703
2019-05-22T07:47:35.002Z,97.991943
2019-05-22T07:48:44.515Z,98.199463
2019-05-22T07:49:54.037Z,98.297119
2019-05-22T07:51:03.549Z,98.400879
2019-05-22T07:52:13.106Z,97.894287
2019-05-22T07:53:22.643Z,97.540283
2019-05-22T07:54:32.141Z,97.540283
2019-05-22T07:55:41.722Z,97.027588
2019-05-22T07:56:51.210Z,97.131348
2019-05-22T07:58:00.736Z,96.826172
2019-05-22T07:59:10.280Z,96.777344
2019-05-22T08:00:19.827Z,96.063232
2019-05-22T08:01:29.322Z,95.861816
2019-05-22T08:02:38.853Z,95.758057
2019-05-22T08:03:48.364Z,96.063232
2019-05-22T08:04:57.904Z,95.861816
2019-05-22T08:06:07.483Z,96.020508
2019-05-22T08:07:17.070Z,96.221924
2019-05-22T08:08:26.612Z,95.812988
2019-05-22T08:09:36.116Z,95.306396
2019-05-22T08:10:45.657Z,95.306396
2019-05-22T08:11:55.203Z,95.098877
2019-05-22T08:13:04.745Z,95.507812
2019-05-22T08:14:14.229Z,95.098877
2019-05-22T08:15:23.749Z,94.793701
2019-05-22T08:16:33.308Z,95.507812
2019-05-22T08:17:42.833Z,95.098877
2019-05-22T08:18:52.365Z,94.488525
2019-05-22T08:20:01.873Z,95.001221
2019-05-22T08:21:11.409Z,94.696045
2019-05-22T08:22:20.948Z,94.488525
2019-05-22T08:23:30.500Z,94.696045
2019-05-22T08:24:40.023Z,94.549561
2019-05-22T08:25:49.538Z,93.835449
2019-05-22T08:26:59.094Z,94.036865
2019-05-22T08:28:08.587Z,93.481445
2019-05-22T08:29:18.117Z,93.383789
2019-05-22T08:30:27.644Z,93.07251
2019-05-22T08:31:37.201Z,93.17627
2019-05-22T08:32:46.723Z,93.07251
2019-05-22T08:33:56.267Z,92.871094
2019-05-22T08:35:05.809Z,93.17627
2019-05-22T08:36:16.349Z,92.565918
2019-05-22T08:37:25.878Z,92.767334
2019-05-22T08:38:35.451Z,92.828369
2019-05-22T08:39:44.941Z,92.114258
2019-05-22T08:40:54.475Z,92.315674
2019-05-22T08:42:04.041Z,91.705322
2019-05-22T08:43:13.578Z,92.828369
2019-05-22T08:44:23.075Z,92.932129
2019-05-22T08:45:32.601Z,93.07251
2019-05-22T08:46:42.154Z,93.383789
2019-05-22T08:47:51.714Z,93.62793
2019-05-22T08:49:01.242Z,93.835449
2019-05-22T08:50:10.771Z,93.890381
2019-05-22T08:51:20.293Z,92.974854
2019-05-22T08:52:29.904Z,93.17627
2019-05-22T08:53:47.090Z,92.871094
2019-05-22T08:54:49.848Z,93.17627
2019-05-22T08:55:59.381Z,92.767334
2019-05-22T08:57:08.923Z,92.767334
2019-05-22T08:58:18.464Z,93.07251
2019-05-22T08:59:27.983Z,92.462158
2019-05-22T09:00:37.558Z,93.07251
2019-05-22T09:01:47.073Z,93.07251
2019-05-22T09:02:56.636Z,92.504883
2019-05-22T09:04:06.159Z,93.218994
2019-05-22T09:05:15.668Z,93.426514
2019-05-22T09:06:26.173Z,93.62793
2019-05-22T09:07:35.716Z,92.504883
2019-05-22T09:08:45.237Z,92.669678
2019-05-22T09:09:54.767Z,92.053223
2019-05-22T09:11:04.287Z,91.400146
2019-05-22T09:12:13.831Z,90.893555
2019-05-22T09:13:23.343Z,90.240479
2019-05-22T09:14:32.853Z,89.318848
2019-05-22T09:15:42.386Z,89.727783
2019-05-22T09:16:51.906Z,90.545654
2019-05-22T09:18:01.448Z,90.240479
2019-05-22T09:19:11.114Z,89.892578
2019-05-22T09:20:20.583Z,89.990234
2019-05-22T09:21:30.088Z,89.422607
2019-05-22T09:22:41.202Z,90.032959
2019-05-22T09:23:49.130Z,88.40332
2019-05-22T09:24:58.654Z,89.318848
2019-05-22T09:26:08.194Z,88.916016
2019-05-22T09:27:17.755Z,89.318848
2019-05-22T09:28:27.284Z,89.318848
2019-05-22T09:29:36.799Z,89.727783
2019-05-22T09:30:46.351Z,89.178467
2019-05-22T09:31:55.851Z,88.671875
2019-05-22T09:33:05.397Z,88.421631
2019-05-22T09:34:14.918Z,88.934326
2019-05-22T09:35:24.475Z,87.103271
2019-05-22T09:36:33.976Z,87.915039
2019-05-22T09:37:43.523Z,87.304688
2019-05-22T09:38:53.044Z,87.713623
2019-05-22T09:40:02.575Z,86.633301
2019-05-22T09:41:12.087Z,87.854004
2019-05-22T09:42:21.647Z,88.360596
2019-05-22T09:43:31.161Z,88.05542
2019-05-22T09:44:40.686Z,89.587402
2019-05-22T09:45:50.220Z,88.916016
2019-05-22T09:46:59.739Z,90.338135
2019-05-22T09:48:09.291Z,89.013672
2019-05-22T09:49:18.805Z,89.013672
2019-05-22T09:50:29.318Z,90.075684
2019-05-22T09:51:38.836Z,89.935303
2019-05-22T09:52:57.354Z,90.032959
2019-05-22T09:53:58.841Z,89.727783
2019-05-22T09:55:08.350Z,90.283203
2019-05-22T09:56:17.852Z,90.588379
2019-05-22T09:57:27.400Z,90.789795
2019-05-22T09:58:36.931Z,90.075684
2019-05-22T09:59:46.434Z,90.484619
2019-05-22T10:00:55.970Z,89.874268
2019-05-22T10:02:05.488Z,89.874268
2019-05-22T10:03:15.063Z,90.179443
2019-05-22T10:04:24.568Z,90.075684
2019-05-22T10:05:35.094Z,90.075684
2019-05-22T10:06:44.598Z,90.179443
2019-05-22T10:08:00.217Z,90.319824
2019-05-22T10:09:04.604Z,90.014648
2019-05-22T10:10:14.136Z,90.83252
2019-05-22T10:11:23.675Z,90.72876
2019-05-22T10:12:33.220Z,91.546631
2019-05-22T10:13:42.928Z,90.83252
2019-05-22T10:14:52.514Z,90.936279
2019-05-22T10:16:01.795Z,91.241455
2019-05-22T10:17:11.300Z,91.033936
2019-05-22T10:18:20.844Z,91.442871
2019-05-22T10:19:30.355Z,91.546631
2019-05-22T10:20:39.865Z,91.137695
2019-05-22T10:21:49.380Z,91.345215
2019-05-22T10:23:13.952Z,90.72876
2019-05-22T10:24:09.420Z,90.72876
2019-05-22T10:25:18.911Z,90.319824
2019-05-22T10:26:28.440Z,90.83252
2019-05-22T10:27:37.982Z,90.83252
2019-05-22T10:28:47.509Z,90.283203
2019-05-22T10:29:57.028Z,89.831543
2019-05-22T10:31:07.631Z,89.483643
2019-05-22T10:32:17.124Z,88.830566
2019-05-22T10:33:26.675Z,88.079834
2019-05-22T10:34:36.228Z,87.365723
2019-05-22T10:35:45.728Z,85.595703
2019-05-22T10:36:55.236Z,84.985352
2019-05-22T10:38:04.786Z,85.699463
2019-05-22T10:39:14.303Z,84.173584
2019-05-22T10:40:23.822Z,83.929443
2019-05-22T10:41:33.327Z,84.399414
2019-05-22T10:42:44.802Z,82.061768
2019-05-22T10:43:52.386Z,83.282471
2019-05-22T10:45:01.907Z,83.752441
2019-05-22T10:46:11.486Z,82.672119
2019-05-22T10:47:20.977Z,82.775879
2019-05-22T10:48:30.520Z,83.282471
2019-05-22T10:49:40.299Z,82.568359
2019-05-22T10:50:49.563Z,83.282471
2019-05-22T10:51:59.106Z,82.775879
2019-05-22T10:53:08.659Z,83.685303
2019-05-22T10:54:18.163Z,83.789062
2019-05-22T10:55:27.681Z,83.483887
2019-05-22T10:56:37.198Z,82.733154
2019-05-22T10:57:46.778Z,83.447266
2019-05-22T10:58:56.302Z,83.648682
2019-05-22T11:00:06.794Z,83.813477
2019-05-22T11:01:16.311Z,83.306885
2019-05-22T11:02:25.826Z,82.696533
2019-05-22T11:03:35.370Z,82.800293
2019-05-22T11:04:44.889Z,82.696533
2019-05-22T11:06:06.131Z,82.757568
2019-05-22T11:07:04.890Z,82.452393
2019-05-22T11:08:14.440Z,82.800293
2019-05-22T11:09:23.971Z,82.025146
2019-05-22T11:10:33.500Z,82.263184
2019-05-22T11:11:43.025Z,83.380127
2019-05-22T11:12:52.714Z,85.253906
2019-05-22T11:14:02.376Z,85.046387
2019-05-22T11:15:12.739Z,85.491943
2019-05-22T11:16:22.239Z,84.47876
2019-05-22T11:17:31.768Z,84.985352
2019-05-22T11:18:41.293Z,84.58252
2019-05-22T11:19:50.810Z,84.033203
2019-05-22T11:21:00.316Z,83.825684
2019-05-22T11:22:09.858Z,83.319092
2019-05-22T11:23:19.385Z,82.000732
2019-05-22T11:24:28.907Z,81.860352
2019-05-22T11:25:38.435Z,80.334473
2019-05-22T11:26:47.936Z,81.188965
2019-05-22T11:27:57.461Z,81.085205
2019-05-22T11:29:07.027Z,82.098389
2019-05-22T11:30:16.570Z,82.507324
2019-05-22T11:31:26.064Z,82.977295
2019-05-22T11:32:35.569Z,82.672119
2019-05-22T11:33:45.106Z,82.568359
2019-05-22T11:34:54.712Z,82.775879
2019-05-22T11:36:04.222Z,82.70874
2019-05-22T11:37:13.745Z,83.221436
2019-05-22T11:38:23.287Z,83.117676
2019-05-22T11:39:39.106Z,83.929443
2019-05-22T11:40:43.267Z,82.202148
2019-05-22T11:41:52.808Z,82.751465
2019-05-22T11:43:02.388Z,83.666992
2019-05-22T11:44:12.009Z,84.47876
2019-05-22T11:45:21.528Z,84.985352
2019-05-22T11:46:31.026Z,84.619141
2019-05-22T11:47:40.541Z,85.089111
2019-05-22T11:48:51.086Z,85.394287
2019-05-22T11:50:00.611Z,84.881592
2019-05-22T11:51:10.177Z,83.319092
2019-05-22T11:52:19.691Z,82.8125
2019-05-22T11:53:29.272Z,83.013916
2019-05-22T11:54:38.781Z,83.526611
2019-05-22T11:55:48.289Z,83.013916
2019-05-22T11:56:57.825Z,83.666992
2019-05-22T11:58:07.382Z,83.728027
2019-05-22T11:59:16.943Z,83.221436
2019-05-22T12:00:26.504Z,83.178711
2019-05-22T12:01:35.982Z,81.719971
2019-05-22T12:02:45.508Z,81.378174
2019-05-22T12:03:55.063Z,80.12085
2019-05-22T12:05:04.575Z,80.187988
2019-05-22T12:06:14.076Z,79.3396
2019-05-22T12:07:23.594Z,78.729248
2019-05-22T12:08:33.145Z,79.400635
2019-05-22T12:09:42.653Z,78.588867
2019-05-22T12:10:52.160Z,77.783203
2019-05-22T12:12:01.691Z,77.575684
2019-05-22T12:13:11.425Z,78.222656
2019-05-22T12:14:20.771Z,79.296875
2019-05-22T12:15:30.291Z,79.705811
2019-05-22T12:16:39.810Z,78.082275
2019-05-22T12:17:49.357Z,77.410889
2019-05-22T12:18:59.269Z,78.729248
2019-05-22T12:20:08.480Z,79.23584
2019-05-22T12:21:18.015Z,79.13208
2019-05-22T12:22:27.539Z,78.662109
2019-05-22T12:23:37.076Z,79.473877
2019-05-22T12:24:46.601Z,78.637695
2019-05-22T12:25:56.113Z,79.650879
2019-05-22T12:27:05.627Z,81.072998
2019-05-22T12:28:15.139Z,79.449463
2019-05-22T12:29:24.706Z,80.36499
2019-05-22T12:30:34.221Z,80.322266
2019-05-22T12:31:43.786Z,80.224609
2019-05-22T12:32:53.289Z,80.627441
2019-05-22T12:34:02.852Z,80.895996
2019-05-22T12:35:12.373Z,79.168701
2019-05-22T12:36:21.890Z,78.564453
2019-05-22T12:37:31.405Z,78.967285
2019-05-22T12:38:40.957Z,78.363037
2019-05-22T12:39:50.472Z,79.3396
2019-05-22T12:40:59.997Z,78.424072
2019-05-22T12:42:09.524Z,77.819824
2019-05-22T12:43:19.032Z,78.729248
2019-05-22T12:44:28.591Z,78.02124
2019-05-22T12:45:38.098Z,77.783203
2019-05-22T12:46:47.622Z,78.527832
2019-05-22T12:47:57.181Z,78.833008
2019-05-22T12:49:08.916Z,78.259277
2019-05-22T12:50:16.242Z,79.272461
2019-05-22T12:51:25.809Z,78.869629
2019-05-22T12:52:35.379Z,79.376221
2019-05-22T12:53:44.916Z,79.107666
2019-05-22T12:54:54.436Z,79.272461
2019-05-22T12:56:03.953Z,79.107666
2019-05-22T12:57:13.484Z,79.919434
2019-05-22T12:58:23.001Z,78.497314
2019-05-22T12:59:32.547Z,79.107666
2019-05-22T13:00:42.116Z,79.376221
2019-05-22T13:01:51.612Z,78.057861
2019-05-22T13:03:01.133Z,77.856445
2019-05-22T13:04:10.665Z,77.648926
2019-05-22T13:05:20.180Z,78.363037
2019-05-22T13:06:29.708Z,78.363037
2019-05-22T13:07:39.208Z,79.376221
2019-05-22T13:08:48.741Z,78.662109
2019-05-22T13:09:58.259Z,77.856445
2019-05-22T13:11:07.769Z,78.259277
2019-05-22T13:12:17.284Z,79.376221
2019-05-22T13:13:26.805Z,78.729248
2019-05-22T13:14:36.393Z,77.612305